createdAt,value
2022-12-16T00:00:17.849Z,-2.02
2022-12-16T00:01:17.864Z,-2.00
2022-12-16T00:02:17.936Z,-1.97
2022-12-16T00:03:17.899Z,-1.95
2022-12-16T00:04:17.817Z,-1.95
2022-12-16T00:05:17.843Z,-1.95
2022-12-16T00:06:17.781Z,-1.95
2022-12-16T00:07:17.791Z,-1.97
2022-12-16T00:08:17.777Z,-1.98
2022-12-16T00:09:17.765Z,-2.00
2022-12-16T00:10:17.744Z,-2.02
2022-12-16T00:11:17.741Z,-2.02
2022-12-16T00:12:17.696Z,-2.00
2022-12-16T00:13:17.718Z,-2.02
2022-12-16T00:14:17.685Z,-2.02
2022-12-16T00:15:17.736Z,-2.02
2022-12-16T00:16:17.714Z,-2.05
2022-12-16T00:17:17.665Z,-2.03
2022-12-16T00:18:17.639Z,-2.03
2022-12-16T00:19:17.650Z,-2.03
2022-12-16T00:20:17.623Z,-2.03
2022-12-16T00:21:17.615Z,-2.02
2022-12-16T00:22:17.580Z,-2.02
2022-12-16T00:23:17.614Z,-2.00
2022-12-16T00:24:17.562Z,-2.00
2022-12-16T00:25:17.558Z,-1.98
2022-12-16T00:26:17.532Z,-1.98
2022-12-16T00:27:17.551Z,-1.97
2022-12-16T00:28:17.505Z,-1.97
2022-12-16T00:29:17.514Z,-1.95
2022-12-16T00:30:17.502Z,-1.94
2022-12-16T00:31:17.500Z,-1.94
2022-12-16T00:32:17.479Z,-1.94
2022-12-16T00:33:17.471Z,-1.98
2022-12-16T00:34:17.461Z,-1.98
2022-12-16T00:35:17.450Z,-1.98
2022-12-16T00:36:17.396Z,-1.94
2022-12-16T00:37:17.435Z,-1.94
2022-12-16T00:38:17.371Z,-1.94
2022-12-16T00:39:17.407Z,-1.97
2022-12-16T00:40:17.341Z,-1.97
2022-12-16T00:41:17.363Z,-1.92
2022-12-16T00:42:17.334Z,-1.92
2022-12-16T00:43:17.380Z,-1.94
2022-12-16T00:44:17.317Z,-1.94
2022-12-16T00:45:17.326Z,-1.94
2022-12-16T00:46:17.381Z,-1.92
2022-12-16T00:47:17.279Z,-1.94
2022-12-16T00:48:17.247Z,-1.92
2022-12-16T00:49:17.282Z,-1.92
2022-12-16T00:50:17.240Z,-1.94
2022-12-16T00:51:17.311Z,-1.95
2022-12-16T00:52:17.200Z,-1.97
2022-12-16T00:53:17.254Z,-1.95
2022-12-16T00:54:17.186Z,-1.95
2022-12-16T00:55:17.185Z,-1.97
2022-12-16T00:56:17.148Z,-2.00
2022-12-16T00:57:17.147Z,-2.02
2022-12-16T00:58:17.129Z,-2.03
2022-12-16T00:59:17.129Z,-2.03
2022-12-16T01:00:17.126Z,-2.08
2022-12-16T01:01:17.170Z,-2.08
2022-12-16T01:02:17.224Z,-2.08
2022-12-16T01:03:21.605Z,-2.10
2022-12-16T01:04:17.115Z,-2.12
2022-12-16T01:05:17.035Z,-2.13
2022-12-16T01:06:17.050Z,-2.16
2022-12-16T01:07:17.020Z,-2.18
2022-12-16T01:08:17.018Z,-2.18
2022-12-16T01:09:16.982Z,-2.18
2022-12-16T01:10:16.992Z,-2.18
2022-12-16T01:11:16.966Z,-2.18
2022-12-16T01:12:16.999Z,-2.20
2022-12-16T01:13:16.954Z,-2.20
2022-12-16T01:14:16.962Z,-2.20
2022-12-16T01:15:16.900Z,-2.21
2022-12-16T01:16:17.025Z,-2.21
2022-12-16T01:17:16.899Z,-2.20
2022-12-16T01:18:16.898Z,-2.23
2022-12-16T01:19:16.861Z,-2.23
2022-12-16T01:20:16.879Z,-2.24
2022-12-16T01:21:16.870Z,-2.24
2022-12-16T01:22:16.833Z,-2.29
2022-12-16T01:23:16.810Z,-2.27
2022-12-16T01:24:16.815Z,-2.27
2022-12-16T01:25:16.776Z,-2.29
2022-12-16T01:26:16.810Z,-2.29
2022-12-16T01:27:16.754Z,-2.30
2022-12-16T01:28:16.816Z,-2.34
2022-12-16T01:29:16.720Z,-2.32
2022-12-16T01:30:16.735Z,-2.30
2022-12-16T01:31:16.778Z,-2.30
2022-12-16T01:32:16.711Z,-2.30
2022-12-16T01:33:16.685Z,-2.30
2022-12-16T01:34:16.721Z,-2.32
2022-12-16T01:35:50.778Z,-2.32
2022-12-16T01:36:16.716Z,-2.30
2022-12-16T01:37:16.639Z,-2.34
2022-12-16T01:38:16.639Z,-2.32
2022-12-16T01:39:16.608Z,-2.32
2022-12-16T01:40:16.624Z,-2.34
2022-12-16T01:41:16.605Z,-2.34
2022-12-16T01:42:16.584Z,-2.34
2022-12-16T01:43:16.553Z,-2.35
2022-12-16T01:44:16.591Z,-2.35
2022-12-16T01:45:16.554Z,-2.35
2022-12-16T01:46:16.617Z,-2.34
2022-12-16T01:47:16.516Z,-2.34
2022-12-16T01:48:16.518Z,-2.30
2022-12-16T01:49:16.476Z,-2.30
2022-12-16T01:50:16.486Z,-2.29
2022-12-16T01:51:16.488Z,-2.30
2022-12-16T01:52:16.465Z,-2.32
2022-12-16T01:53:16.436Z,-2.34
2022-12-16T01:54:16.438Z,-2.34
2022-12-16T01:55:16.394Z,-2.34
2022-12-16T01:56:16.429Z,-2.35
2022-12-16T01:57:16.392Z,-2.34
2022-12-16T01:58:16.392Z,-2.37
2022-12-16T01:59:16.373Z,-2.35
2022-12-16T02:00:16.388Z,-2.34
2022-12-16T02:01:16.418Z,-2.32
2022-12-16T02:02:16.466Z,-2.32
2022-12-16T02:03:16.331Z,-2.34
2022-12-16T02:04:16.326Z,-2.30
2022-12-16T02:05:16.273Z,-2.30
2022-12-16T02:06:16.350Z,-2.32
2022-12-16T02:07:16.251Z,-2.27
2022-12-16T02:08:16.271Z,-2.29
2022-12-16T02:09:16.252Z,-2.29
2022-12-16T02:10:16.233Z,-2.26
2022-12-16T02:11:16.190Z,-2.27
2022-12-16T02:12:16.214Z,-2.24
2022-12-16T02:13:16.172Z,-2.26
2022-12-16T02:14:16.228Z,-2.21
2022-12-16T02:15:16.139Z,-2.23
2022-12-16T02:16:17.397Z,-2.21
2022-12-16T02:17:16.239Z,-2.20
2022-12-16T02:18:16.136Z,-2.20
2022-12-16T02:19:16.126Z,-2.23
2022-12-16T02:20:16.116Z,-2.21
2022-12-16T02:21:16.091Z,-2.20
2022-12-16T02:22:16.092Z,-2.23
2022-12-16T02:23:16.040Z,-2.21
2022-12-16T02:24:16.053Z,-2.23
2022-12-16T02:25:16.013Z,-2.21
2022-12-16T02:26:16.090Z,-2.21
2022-12-16T02:27:15.985Z,-2.23
2022-12-16T02:28:16.015Z,-2.23
2022-12-16T02:29:16.005Z,-2.23
2022-12-16T02:30:15.977Z,-2.23
2022-12-16T02:31:16.002Z,-2.23
2022-12-16T02:32:15.958Z,-2.21
2022-12-16T02:33:15.933Z,-2.21
2022-12-16T02:34:15.953Z,-2.18
2022-12-16T02:35:15.910Z,-2.21
2022-12-16T02:36:15.896Z,-2.23
2022-12-16T02:37:15.873Z,-2.23
2022-12-16T02:38:15.896Z,-2.24
2022-12-16T02:39:15.879Z,-2.21
2022-12-16T02:40:15.867Z,-2.23
2022-12-16T02:41:15.823Z,-2.21
2022-12-16T02:42:15.835Z,-2.20
2022-12-16T02:43:15.797Z,-2.21
2022-12-16T02:44:15.832Z,-2.21
2022-12-16T02:45:15.784Z,-2.18
2022-12-16T02:46:15.802Z,-2.20
2022-12-16T02:47:15.756Z,-2.23
2022-12-16T02:48:15.767Z,-2.23
2022-12-16T02:49:15.742Z,-2.21
2022-12-16T02:50:15.731Z,-2.23
2022-12-16T02:51:15.778Z,-2.21
2022-12-16T02:52:15.725Z,-2.21
2022-12-16T02:53:15.669Z,-2.23
2022-12-16T02:54:15.707Z,-2.21
2022-12-16T02:55:15.641Z,-2.20
2022-12-16T02:56:15.658Z,-2.20
2022-12-16T02:57:15.612Z,-2.20
2022-12-16T02:58:15.629Z,-2.21
2022-12-16T02:59:15.638Z,-2.21
2022-12-16T03:00:15.612Z,-2.21
2022-12-16T03:01:15.593Z,-2.21
2022-12-16T03:02:15.835Z,-2.21
2022-12-16T03:03:15.609Z,-2.18
2022-12-16T03:04:15.549Z,-2.20
2022-12-16T03:05:15.550Z,-2.21
2022-12-16T03:06:15.517Z,-2.21
2022-12-16T03:07:15.497Z,-2.20
2022-12-16T03:08:15.533Z,-2.20
2022-12-16T03:09:15.484Z,-2.20
2022-12-16T03:10:15.498Z,-2.21
2022-12-16T03:11:15.440Z,-2.23
2022-12-16T03:12:15.446Z,-2.20
2022-12-16T03:13:15.457Z,-2.20
2022-12-16T03:14:15.453Z,-2.21
2022-12-16T03:15:15.398Z,-2.23
2022-12-16T03:16:15.471Z,-2.21
2022-12-16T03:17:15.366Z,-2.20
2022-12-16T03:18:15.393Z,-2.23
2022-12-16T03:19:15.348Z,-2.24
2022-12-16T03:20:15.354Z,-2.24
2022-12-16T03:21:15.340Z,-2.27
2022-12-16T03:22:15.332Z,-2.27
2022-12-16T03:23:15.311Z,-2.29
2022-12-16T03:24:15.302Z,-2.34
2022-12-16T03:25:15.259Z,-2.30
2022-12-16T03:26:15.270Z,-2.32
2022-12-16T03:27:15.253Z,-2.29
2022-12-16T03:28:15.242Z,-2.32
2022-12-16T03:29:15.220Z,-2.30
2022-12-16T03:30:15.220Z,-2.35
2022-12-16T03:31:15.264Z,-2.32
2022-12-16T03:32:15.202Z,-2.30
2022-12-16T03:33:15.177Z,-2.30
2022-12-16T03:34:15.188Z,-2.30
2022-12-16T03:35:15.136Z,-2.29
2022-12-16T03:36:15.139Z,-2.30
2022-12-16T03:37:15.106Z,-2.30
2022-12-16T03:38:15.120Z,-2.35
2022-12-16T03:39:15.102Z,-2.34
2022-12-16T03:40:15.094Z,-2.35
2022-12-16T03:41:15.059Z,-2.30
2022-12-16T03:42:15.066Z,-2.29
2022-12-16T03:43:15.049Z,-2.29
2022-12-16T03:44:15.070Z,-2.32
2022-12-16T03:45:15.017Z,-2.30
2022-12-16T03:46:15.063Z,-2.32
2022-12-16T03:47:21.543Z,-2.34
2022-12-16T03:48:15.019Z,-2.30
2022-12-16T03:49:14.957Z,-2.32
2022-12-16T03:50:14.974Z,-2.30
2022-12-16T03:51:14.945Z,-2.32
2022-12-16T03:52:14.944Z,-2.34
2022-12-16T03:53:14.942Z,-2.35
2022-12-16T03:54:14.920Z,-2.37
2022-12-16T03:55:14.873Z,-2.37
2022-12-16T03:56:14.917Z,-2.40
2022-12-16T03:57:15.743Z,-2.39
2022-12-16T03:58:14.885Z,-2.39
2022-12-16T03:59:14.851Z,-2.40
2022-12-16T04:00:14.855Z,-2.39
2022-12-16T04:01:14.826Z,-2.39
2022-12-16T04:02:15.030Z,-2.40
2022-12-16T04:03:15.073Z,-2.40
2022-12-16T04:04:14.786Z,-2.40
2022-12-16T04:05:14.769Z,-2.37
2022-12-16T04:06:14.797Z,-2.40
2022-12-16T04:07:14.767Z,-2.42
2022-12-16T04:08:14.747Z,-2.42
2022-12-16T04:09:14.708Z,-2.43
2022-12-16T04:10:14.731Z,-2.40
2022-12-16T04:11:14.713Z,-2.43
2022-12-16T04:12:14.697Z,-2.46
2022-12-16T04:13:14.667Z,-2.48
2022-12-16T04:14:14.664Z,-2.49
2022-12-16T04:15:14.649Z,-2.52
2022-12-16T04:16:14.718Z,-2.52
2022-12-16T04:17:14.640Z,-2.55
2022-12-16T04:18:14.613Z,-2.56
2022-12-16T04:19:14.599Z,-2.56
2022-12-16T04:20:14.601Z,-2.58
2022-12-16T04:21:14.602Z,-2.61
2022-12-16T04:22:14.576Z,-2.61
2022-12-16T04:23:14.522Z,-2.63
2022-12-16T04:24:14.536Z,-2.64
2022-12-16T04:25:14.542Z,-2.64
2022-12-16T04:26:14.514Z,-2.64
2022-12-16T04:27:15.801Z,-2.64
2022-12-16T04:28:14.491Z,-2.64
2022-12-16T04:29:14.447Z,-2.67
2022-12-16T04:30:14.499Z,-2.67
2022-12-16T04:31:14.522Z,-2.67
2022-12-16T04:32:14.449Z,-2.64
2022-12-16T04:33:14.400Z,-2.64
2022-12-16T04:34:14.423Z,-2.66
2022-12-16T04:35:14.409Z,-2.66
2022-12-16T04:36:14.398Z,-2.67
2022-12-16T04:37:14.360Z,-2.66
2022-12-16T04:38:14.360Z,-2.67
2022-12-16T04:39:14.320Z,-2.70
2022-12-16T04:40:14.345Z,-2.73
2022-12-16T04:41:14.315Z,-2.73
2022-12-16T04:42:14.307Z,-2.74
2022-12-16T04:43:14.271Z,-2.74
2022-12-16T04:44:14.348Z,-2.78
2022-12-16T04:45:14.268Z,-2.77
2022-12-16T04:46:14.285Z,-2.78
2022-12-16T04:47:14.239Z,-2.78
2022-12-16T04:48:14.242Z,-2.79
2022-12-16T04:49:14.240Z,-2.82
2022-12-16T04:50:14.217Z,-2.82
2022-12-16T04:51:14.172Z,-2.84
2022-12-16T04:52:14.218Z,-2.86
2022-12-16T04:53:14.172Z,-2.91
2022-12-16T04:54:14.174Z,-2.92
2022-12-16T04:55:14.220Z,-2.92
2022-12-16T04:56:14.139Z,-2.94
2022-12-16T04:57:14.113Z,-2.94
2022-12-16T04:58:14.136Z,-2.96
2022-12-16T04:59:14.092Z,-2.97
2022-12-16T05:00:14.112Z,-2.99
2022-12-16T05:01:14.078Z,-2.99
2022-12-16T05:02:14.200Z,-3.02
2022-12-16T05:03:14.079Z,-3.03
2022-12-16T05:04:14.061Z,-3.03
2022-12-16T05:05:14.036Z,-3.03
2022-12-16T05:06:14.029Z,-3.05
2022-12-16T05:07:13.970Z,-3.06
2022-12-16T05:08:14.001Z,-3.07
2022-12-16T05:09:13.974Z,-3.09
2022-12-16T05:10:13.983Z,-3.10
2022-12-16T05:11:13.947Z,-3.10
2022-12-16T05:12:13.948Z,-3.14
2022-12-16T05:13:13.896Z,-3.15
2022-12-16T05:14:13.928Z,-3.17
2022-12-16T05:15:13.904Z,-3.20
2022-12-16T05:16:13.947Z,-3.18
2022-12-16T05:17:13.904Z,-3.20
2022-12-16T05:18:13.850Z,-3.20
2022-12-16T05:19:14.086Z,-3.18
2022-12-16T05:20:13.822Z,-3.21
2022-12-16T05:21:13.830Z,-3.20
2022-12-16T05:22:13.817Z,-3.20
2022-12-16T05:23:13.808Z,-3.21
2022-12-16T05:24:13.762Z,-3.23
2022-12-16T05:25:13.789Z,-3.21
2022-12-16T05:26:13.756Z,-3.23
2022-12-16T05:27:13.745Z,-3.24
2022-12-16T05:28:13.718Z,-3.25
2022-12-16T05:29:13.766Z,-3.25
2022-12-16T05:30:13.724Z,-3.25
2022-12-16T05:31:13.768Z,-3.27
2022-12-16T05:32:13.675Z,-3.27
2022-12-16T05:33:13.679Z,-3.30
2022-12-16T05:34:13.667Z,-3.28
2022-12-16T05:35:13.665Z,-3.30
2022-12-16T05:36:13.614Z,-3.31
2022-12-16T05:37:13.644Z,-3.33
2022-12-16T05:38:13.581Z,-3.31
2022-12-16T05:39:13.613Z,-3.33
2022-12-16T05:40:13.597Z,-3.35
2022-12-16T05:41:13.589Z,-3.35
2022-12-16T05:42:13.541Z,-3.33
2022-12-16T05:43:16.838Z,-3.33
2022-12-16T05:44:13.518Z,-3.36
2022-12-16T05:45:13.560Z,-3.39
2022-12-16T05:46:13.614Z,-3.39
2022-12-16T05:47:13.555Z,-3.43
2022-12-16T05:48:13.512Z,-3.42
2022-12-16T05:49:13.492Z,-3.43
2022-12-16T05:50:13.481Z,-3.43
2022-12-16T05:51:13.470Z,-3.42
2022-12-16T05:52:13.420Z,-3.42
2022-12-16T05:53:13.436Z,-3.45
2022-12-16T05:54:13.403Z,-3.48
2022-12-16T05:55:13.430Z,-3.48
2022-12-16T05:56:13.406Z,-3.52
2022-12-16T05:57:13.380Z,-3.48
2022-12-16T05:58:13.343Z,-3.48
2022-12-16T05:59:13.394Z,-3.49
2022-12-16T06:00:13.363Z,-3.52
2022-12-16T06:01:13.360Z,-3.49
2022-12-16T06:02:13.453Z,-3.53
2022-12-16T06:03:13.474Z,-3.54
2022-12-16T06:04:17.540Z,-3.56
2022-12-16T06:05:13.306Z,-3.57
2022-12-16T06:06:13.243Z,-3.59
2022-12-16T06:07:13.279Z,-3.60
2022-12-16T06:08:13.215Z,-3.60
2022-12-16T06:09:13.230Z,-3.59
2022-12-16T06:10:13.215Z,-3.57
2022-12-16T06:11:13.226Z,-3.57
2022-12-16T06:12:13.170Z,-3.62
2022-12-16T06:13:13.216Z,-3.67
2022-12-16T06:14:13.143Z,-3.69
2022-12-16T06:15:13.189Z,-3.72
2022-12-16T06:16:13.157Z,-3.75
2022-12-16T06:17:13.131Z,-3.76
2022-12-16T06:18:13.145Z,-3.76
2022-12-16T06:19:13.125Z,-3.75
2022-12-16T06:20:13.082Z,-3.75
2022-12-16T06:21:13.095Z,-3.71
2022-12-16T06:22:13.043Z,-3.67
2022-12-16T06:23:13.059Z,-3.66
2022-12-16T06:24:13.020Z,-3.63
2022-12-16T06:25:13.033Z,-3.67
2022-12-16T06:26:13.016Z,-3.67
2022-12-16T06:27:13.001Z,-3.66
2022-12-16T06:28:12.981Z,-3.62
2022-12-16T06:29:13.021Z,-3.62
2022-12-16T06:30:12.953Z,-3.59
2022-12-16T06:31:13.047Z,-3.59
2022-12-16T06:32:12.919Z,-3.57
2022-12-16T06:33:12.990Z,-3.56
2022-12-16T06:34:12.921Z,-3.56
2022-12-16T06:35:12.916Z,-3.56
2022-12-16T06:36:12.868Z,-3.56
2022-12-16T06:37:12.886Z,-3.57
2022-12-16T06:38:12.867Z,-3.57
2022-12-16T06:39:12.889Z,-3.56
2022-12-16T06:40:12.815Z,-3.54
2022-12-16T06:41:12.839Z,-3.54
2022-12-16T06:42:12.797Z,-3.54
2022-12-16T06:43:12.809Z,-3.56
2022-12-16T06:44:12.777Z,-3.54
2022-12-16T06:45:12.797Z,-3.53
2022-12-16T06:46:12.819Z,-3.53
2022-12-16T06:47:12.845Z,-3.52
2022-12-16T06:48:12.721Z,-3.56
2022-12-16T06:49:12.730Z,-3.64
2022-12-16T06:50:12.715Z,-3.71
2022-12-16T06:51:12.713Z,-3.76
2022-12-16T06:52:12.684Z,-3.81
2022-12-16T06:53:12.675Z,-3.82
2022-12-16T06:54:12.645Z,-3.81
2022-12-16T06:55:12.649Z,-3.81
2022-12-16T06:56:12.615Z,-3.83
2022-12-16T06:57:12.659Z,-3.88
2022-12-16T06:58:12.589Z,-3.91
2022-12-16T06:59:12.618Z,-3.93
2022-12-16T07:00:12.568Z,-3.96
2022-12-16T07:01:12.610Z,-4.01
2022-12-16T07:02:12.937Z,-4.07
2022-12-16T07:03:12.610Z,-4.12
2022-12-16T07:04:12.516Z,-4.20
2022-12-16T07:05:12.540Z,-4.28
2022-12-16T07:06:12.513Z,-4.40
2022-12-16T07:07:12.624Z,-4.47
2022-12-16T07:08:12.462Z,-4.50
2022-12-16T07:09:12.510Z,-4.53
2022-12-16T07:10:12.455Z,-4.54
2022-12-16T07:11:17.143Z,-4.56
2022-12-16T07:12:12.677Z,-4.58
2022-12-16T07:13:12.434Z,-4.63
2022-12-16T07:14:12.421Z,-4.61
2022-12-16T07:15:12.420Z,-4.61
2022-12-16T07:16:12.437Z,-4.61
2022-12-16T07:17:16.891Z,-4.60
2022-12-16T07:18:12.368Z,-4.54
2022-12-16T07:19:12.391Z,-4.54
2022-12-16T07:20:12.323Z,-4.56
2022-12-16T07:21:12.340Z,-4.56
2022-12-16T07:22:12.291Z,-4.54
2022-12-16T07:23:19.280Z,-4.51
2022-12-16T07:24:12.288Z,-4.50
2022-12-16T07:25:12.302Z,-4.50
2022-12-16T07:26:12.259Z,-4.43
2022-12-16T07:27:12.253Z,-4.39
2022-12-16T07:28:15.517Z,-4.35
2022-12-16T07:29:12.245Z,-4.29
2022-12-16T07:30:12.227Z,-4.24
2022-12-16T07:31:12.234Z,-4.20
2022-12-16T07:32:12.220Z,-4.15
2022-12-16T07:33:12.182Z,-4.10
2022-12-16T07:34:12.154Z,-4.04
2022-12-16T07:35:12.192Z,-4.01
2022-12-16T07:36:12.130Z,-3.97
2022-12-16T07:37:12.130Z,-4.00
2022-12-16T07:38:12.097Z,-4.06
2022-12-16T07:39:12.117Z,-4.10
2022-12-16T07:40:12.116Z,-4.10
2022-12-16T07:41:12.085Z,-4.07
2022-12-16T07:42:12.052Z,-4.04
2022-12-16T07:43:12.069Z,-4.04
2022-12-16T07:44:12.028Z,-4.10
2022-12-16T07:45:12.060Z,-4.14
2022-12-16T07:46:12.037Z,-4.18
2022-12-16T07:47:12.034Z,-4.20
2022-12-16T07:48:11.987Z,-4.17
2022-12-16T07:49:11.992Z,-4.14
2022-12-16T07:50:11.993Z,-4.21
2022-12-16T07:51:11.983Z,-4.29
2022-12-16T07:52:11.933Z,-4.33
2022-12-16T07:53:11.943Z,-4.32
2022-12-16T07:54:11.914Z,-4.30
2022-12-16T07:55:11.919Z,-4.25
2022-12-16T07:56:11.911Z,-4.21
2022-12-16T07:57:11.879Z,-4.17
2022-12-16T07:58:11.879Z,-4.20
2022-12-16T07:59:11.871Z,-4.33
2022-12-16T08:00:11.825Z,-4.49
2022-12-16T08:01:11.883Z,-4.60
2022-12-16T08:02:11.949Z,-4.63
2022-12-16T08:03:11.930Z,-4.61
2022-12-16T08:04:11.788Z,-4.56
2022-12-16T08:05:11.813Z,-4.63
2022-12-16T08:06:11.742Z,-4.68
2022-12-16T08:07:11.772Z,-4.69
2022-12-16T08:08:11.765Z,-4.74
2022-12-16T08:09:11.751Z,-4.86
2022-12-16T08:10:11.705Z,-4.87
2022-12-16T08:11:11.719Z,-4.86
2022-12-16T08:12:11.689Z,-4.81
2022-12-16T08:13:11.711Z,-4.74
2022-12-16T08:14:11.673Z,-4.68
2022-12-16T08:15:11.669Z,-4.61
2022-12-16T08:16:11.734Z,-4.57
2022-12-16T08:17:11.776Z,-4.56
2022-12-16T08:18:11.599Z,-4.51
2022-12-16T08:19:11.720Z,-4.46
2022-12-16T08:20:11.580Z,-4.38
2022-12-16T08:21:11.593Z,-4.32
2022-12-16T08:22:11.552Z,-4.25
2022-12-16T08:23:11.582Z,-4.22
2022-12-16T08:24:11.578Z,-4.17
2022-12-16T08:25:11.543Z,-4.17
2022-12-16T08:26:11.526Z,-4.29
2022-12-16T08:27:11.560Z,-4.38
2022-12-16T08:28:11.481Z,-4.36
2022-12-16T08:29:35.142Z,-4.33
2022-12-16T08:30:11.470Z,-4.30
2022-12-16T08:31:11.552Z,-4.25
2022-12-16T08:32:11.457Z,-4.22
2022-12-16T08:33:18.703Z,-4.20
2022-12-16T08:34:11.429Z,-4.20
2022-12-16T08:35:11.416Z,-4.28
2022-12-16T08:36:11.385Z,-4.32
2022-12-16T08:37:11.401Z,-4.36
2022-12-16T08:38:14.022Z,-4.40
2022-12-16T08:39:11.370Z,-4.47
2022-12-16T08:40:34.426Z,-4.53
2022-12-16T08:41:11.349Z,-4.58
2022-12-16T08:42:12.288Z,-4.69
2022-12-16T08:43:12.951Z,-4.72
2022-12-16T08:44:11.312Z,-4.69
2022-12-16T08:45:11.296Z,-4.63
2022-12-16T08:46:11.288Z,-4.56
2022-12-16T08:47:11.275Z,-4.49
2022-12-16T08:48:11.245Z,-4.38
2022-12-16T08:49:11.254Z,-4.28
2022-12-16T08:50:11.251Z,-4.22
2022-12-16T08:51:11.212Z,-4.15
2022-12-16T08:52:11.196Z,-4.11
2022-12-16T08:53:11.232Z,-4.06
2022-12-16T08:54:11.180Z,-4.00
2022-12-16T08:55:11.198Z,-3.96
2022-12-16T08:56:11.138Z,-3.91
2022-12-16T08:57:11.162Z,-3.85
2022-12-16T08:58:11.146Z,-3.81
2022-12-16T08:59:11.140Z,-3.71
2022-12-16T09:00:11.103Z,-3.62
2022-12-16T09:01:11.185Z,-3.63
2022-12-16T09:02:11.300Z,-3.56
2022-12-16T09:03:11.288Z,-3.41
2022-12-16T09:04:11.108Z,-3.25
2022-12-16T09:05:11.043Z,-3.07
2022-12-16T09:06:11.051Z,-2.86
2022-12-16T09:07:11.035Z,-2.68
2022-12-16T09:08:10.985Z,-2.49
2022-12-16T09:09:11.012Z,-2.40
2022-12-16T09:10:10.983Z,-2.30
2022-12-16T09:11:10.970Z,-2.24
2022-12-16T09:12:11.069Z,-2.18
2022-12-16T09:13:10.957Z,-2.12
2022-12-16T09:14:10.927Z,-2.05
2022-12-16T09:15:10.950Z,-1.95
2022-12-16T09:16:14.460Z,-1.85
2022-12-16T09:17:10.903Z,-1.73
2022-12-16T09:18:10.893Z,-1.61
2022-12-16T09:19:10.860Z,-1.51
2022-12-16T09:20:10.835Z,-1.41
2022-12-16T09:21:10.885Z,-1.31
2022-12-16T09:22:10.808Z,-1.20
2022-12-16T09:23:10.837Z,-1.07
2022-12-16T09:24:10.834Z,-0.99
2022-12-16T09:25:10.804Z,-0.89
2022-12-16T09:26:10.828Z,-0.79
2022-12-16T09:27:10.798Z,-0.72
2022-12-16T09:28:10.747Z,-0.61
2022-12-16T09:29:10.735Z,-0.57
2022-12-16T09:30:10.701Z,-0.57
2022-12-16T09:31:10.790Z,-0.51
2022-12-16T09:32:10.705Z,-0.42
2022-12-16T09:33:10.691Z,-0.33
2022-12-16T09:34:10.698Z,-0.21
2022-12-16T09:35:13.581Z,-0.08
2022-12-16T09:36:10.661Z,-0.04
2022-12-16T09:37:10.625Z,0.02
2022-12-16T09:38:10.636Z,0.03
2022-12-16T09:39:10.615Z,0.02
2022-12-16T09:40:10.607Z,0.02
2022-12-16T09:41:10.565Z,0.07
2022-12-16T09:42:10.568Z,0.10
2022-12-16T09:43:10.546Z,0.18
2022-12-16T09:44:10.585Z,0.26
2022-12-16T09:45:10.548Z,0.32
2022-12-16T09:46:10.544Z,0.35
2022-12-16T09:47:10.478Z,0.39
2022-12-16T09:48:10.502Z,0.44
2022-12-16T09:49:10.473Z,0.53
2022-12-16T09:50:10.505Z,0.62
2022-12-16T09:51:10.468Z,0.75
2022-12-16T09:52:14.997Z,0.87
2022-12-16T09:53:10.424Z,1.04
2022-12-16T09:54:10.449Z,1.20
2022-12-16T09:55:10.384Z,1.30
2022-12-16T09:56:10.449Z,1.34
2022-12-16T09:57:10.350Z,1.22
2022-12-16T09:58:10.364Z,0.78
2022-12-16T09:59:10.338Z,0.70
2022-12-16T10:00:10.327Z,0.73
2022-12-16T10:01:10.369Z,0.76
2022-12-16T10:02:10.507Z,0.58
2022-12-16T10:03:10.589Z,0.08
2022-12-16T10:04:10.378Z,-0.04
2022-12-16T10:05:10.259Z,-0.05
2022-12-16T10:06:10.260Z,-0.39
2022-12-16T10:07:10.242Z,-0.70
2022-12-16T10:08:13.103Z,-0.80
2022-12-16T10:09:10.211Z,-0.82
2022-12-16T10:10:10.217Z,-0.79
2022-12-16T10:11:10.167Z,-0.78
2022-12-16T10:12:10.224Z,-0.80
2022-12-16T10:13:10.166Z,-0.80
2022-12-16T10:14:12.293Z,-0.83
2022-12-16T10:15:10.156Z,-0.83
2022-12-16T10:16:10.193Z,-0.85
2022-12-16T10:17:10.097Z,-0.86
2022-12-16T10:18:10.487Z,-0.99
2022-12-16T10:19:10.087Z,-1.10
2022-12-16T10:20:10.107Z,-1.22
2022-12-16T10:21:10.041Z,-1.54
2022-12-16T10:22:10.052Z,-1.82
2022-12-16T10:23:10.057Z,-1.91
2022-12-16T10:24:10.039Z,-1.85
2022-12-16T10:25:10.060Z,-1.88
2022-12-16T10:26:09.994Z,-1.92
2022-12-16T10:27:09.973Z,-1.98
2022-12-16T10:28:10.007Z,-1.95
2022-12-16T10:29:09.940Z,-1.94
2022-12-16T10:30:09.990Z,-1.91
2022-12-16T10:31:09.974Z,-1.87
2022-12-16T10:32:09.948Z,-1.90
2022-12-16T10:33:09.876Z,-1.87
2022-12-16T10:34:09.949Z,-1.85
2022-12-16T10:35:09.853Z,-1.76
2022-12-16T10:36:09.878Z,-1.67
2022-12-16T10:37:14.199Z,-1.62
2022-12-16T10:38:09.985Z,-1.66
2022-12-16T10:39:09.815Z,-1.69
2022-12-16T10:40:09.837Z,-1.66
2022-12-16T10:41:09.785Z,-1.62
2022-12-16T10:42:09.813Z,-1.58
2022-12-16T10:43:09.758Z,-1.56
2022-12-16T10:44:09.773Z,-1.62
2022-12-16T10:45:09.769Z,-1.67
2022-12-16T10:46:09.797Z,-1.66
2022-12-16T10:47:09.721Z,-1.61
2022-12-16T10:48:09.718Z,-1.61
2022-12-16T10:49:09.750Z,-1.66
2022-12-16T10:50:09.749Z,-1.62
2022-12-16T10:51:09.668Z,-1.58
2022-12-16T10:52:09.668Z,-1.52
2022-12-16T10:53:09.644Z,-1.46
2022-12-16T10:54:09.643Z,-1.38
2022-12-16T10:55:09.612Z,-1.37
2022-12-16T10:56:09.638Z,-1.41
2022-12-16T10:57:09.637Z,-1.41
2022-12-16T10:58:09.670Z,-1.48
2022-12-16T10:59:09.583Z,-1.59
2022-12-16T11:00:09.559Z,-1.67
2022-12-16T11:01:09.523Z,-1.77
2022-12-16T11:02:09.652Z,-1.79
2022-12-16T11:03:09.907Z,-1.79
2022-12-16T11:04:09.571Z,-1.73
2022-12-16T11:05:09.496Z,-1.67
2022-12-16T11:06:09.493Z,-1.59
2022-12-16T11:07:09.460Z,-1.54
2022-12-16T11:08:09.504Z,-1.46
2022-12-16T11:09:09.438Z,-1.48
2022-12-16T11:10:09.438Z,-1.48
2022-12-16T11:11:09.429Z,-1.46
2022-12-16T11:12:09.400Z,-1.45
2022-12-16T11:13:09.421Z,-1.37
2022-12-16T11:14:09.381Z,-1.31
2022-12-16T11:16:09.447Z,-1.22
2022-12-16T11:17:09.320Z,-1.20
2022-12-16T11:18:09.343Z,-1.19
2022-12-16T11:19:09.284Z,-1.20
2022-12-16T11:20:09.316Z,-1.19
2022-12-16T11:21:12.235Z,-1.19
2022-12-16T11:22:09.312Z,-1.19
2022-12-16T11:23:09.252Z,-1.16
2022-12-16T11:24:09.248Z,-1.15
2022-12-16T11:25:09.214Z,-1.12
2022-12-16T11:26:09.263Z,-1.10
2022-12-16T11:27:09.209Z,-1.10
2022-12-16T11:28:09.192Z,-1.09
2022-12-16T11:29:09.201Z,-1.10
2022-12-16T11:30:09.168Z,-1.10
2022-12-16T11:31:09.316Z,-1.09
2022-12-16T11:32:09.129Z,-1.05
2022-12-16T11:33:09.149Z,-1.02
2022-12-16T11:34:09.120Z,-1.01
2022-12-16T11:35:09.133Z,-1.02
2022-12-16T11:36:09.081Z,-1.02
2022-12-16T11:37:11.024Z,-1.02
2022-12-16T11:38:09.054Z,-1.04
2022-12-16T11:39:09.077Z,-1.04
2022-12-16T11:40:09.014Z,-1.02
2022-12-16T11:41:09.052Z,-1.01
2022-12-16T11:42:09.063Z,-1.01
2022-12-16T11:43:14.128Z,-0.99
2022-12-16T11:44:09.011Z,-0.98
2022-12-16T11:45:08.983Z,-0.97
2022-12-16T11:46:09.033Z,-0.95
2022-12-16T11:47:08.985Z,-0.91
2022-12-16T11:48:08.917Z,-0.86
2022-12-16T11:49:08.980Z,-0.83
2022-12-16T11:50:08.900Z,-0.83
2022-12-16T11:51:08.898Z,-0.82
2022-12-16T11:52:35.427Z,-0.82
2022-12-16T11:53:08.895Z,-0.80
2022-12-16T11:54:08.900Z,-0.80
2022-12-16T11:55:08.917Z,-0.79
2022-12-16T11:56:15.438Z,-0.78
2022-12-16T11:57:08.832Z,-0.73
2022-12-16T11:58:08.792Z,-0.75
2022-12-16T11:59:08.848Z,-0.73
2022-12-16T12:00:08.789Z,-0.73
2022-12-16T12:01:08.791Z,-0.72
2022-12-16T12:02:08.835Z,-0.67
2022-12-16T12:03:08.857Z,-0.69
2022-12-16T12:04:08.773Z,-0.65
2022-12-16T12:05:08.751Z,-0.64
2022-12-16T12:06:08.699Z,-0.65
2022-12-16T12:07:08.728Z,-0.62
2022-12-16T12:08:08.660Z,-0.58
2022-12-16T12:09:08.672Z,-0.57
2022-12-16T12:10:08.637Z,-0.57
2022-12-16T12:11:08.671Z,-0.55
2022-12-16T12:12:08.660Z,-0.52
2022-12-16T12:13:08.635Z,-0.52
2022-12-16T12:14:08.612Z,-0.47
2022-12-16T12:15:08.617Z,-0.49
2022-12-16T12:16:08.608Z,-0.49
2022-12-16T12:17:08.552Z,-0.49
2022-12-16T12:18:08.535Z,-0.51
2022-12-16T12:19:08.548Z,-0.47
2022-12-16T12:20:08.503Z,-0.49
2022-12-16T12:21:08.541Z,-0.46
2022-12-16T12:22:08.474Z,-0.44
2022-12-16T12:23:08.507Z,-0.44
2022-12-16T12:24:08.479Z,-0.44
2022-12-16T12:25:08.465Z,-0.44
2022-12-16T12:26:08.421Z,-0.47
2022-12-16T12:27:08.442Z,-0.47
2022-12-16T12:28:08.408Z,-0.49
2022-12-16T12:29:08.432Z,-0.51
2022-12-16T12:30:14.539Z,-0.52
2022-12-16T12:31:08.447Z,-0.52
2022-12-16T12:32:08.359Z,-0.51
2022-12-16T12:33:08.363Z,-0.51
2022-12-16T12:34:08.358Z,-0.46
2022-12-16T12:35:08.365Z,-0.43
2022-12-16T12:36:08.306Z,-0.44
2022-12-16T12:37:08.307Z,-0.43
2022-12-16T12:38:08.297Z,-0.42
2022-12-16T12:39:08.303Z,-0.43
2022-12-16T12:40:08.282Z,-0.43
2022-12-16T12:41:08.267Z,-0.42
2022-12-16T12:42:08.230Z,-0.39
2022-12-16T12:43:08.237Z,-0.36
2022-12-16T12:44:08.190Z,-0.36
2022-12-16T12:45:08.197Z,-0.29
2022-12-16T12:46:08.189Z,-0.28
2022-12-16T12:47:08.229Z,-0.26
2022-12-16T12:48:08.140Z,-0.23
2022-12-16T12:49:08.151Z,-0.22
2022-12-16T12:50:08.156Z,-0.22
2022-12-16T12:51:08.136Z,-0.21
2022-12-16T12:52:08.094Z,-0.18
2022-12-16T12:53:08.134Z,-0.19
2022-12-16T12:54:08.080Z,-0.26